createdAt,value
2017-01-06T00:00:31.269Z,0
2017-01-06T00:01:31.247Z,0
2017-01-06T00:02:31.229Z,0
2017-01-06T00:03:31.198Z,0
2017-01-06T00:04:31.186Z,0
2017-01-06T00:05:31.161Z,0
2017-01-06T00:06:31.545Z,0
2017-01-06T00:07:32.012Z,0
2017-01-06T00:08:31.814Z,0
2017-01-06T00:09:31.066Z,0
2017-01-06T00:10:31.154Z,0
2017-01-06T00:11:31.496Z,0
2017-01-06T00:12:31.008Z,0
2017-01-06T00:13:30.979Z,0
2017-01-06T00:14:30.958Z,0
2017-01-06T00:15:30.940Z,0
2017-01-06T00:16:30.910Z,0
2017-01-06T00:17:30.892Z,0
2017-01-06T00:18:30.898Z,0
2017-01-06T00:19:30.900Z,0
2017-01-06T00:20:30.823Z,0
2017-01-06T00:21:30.802Z,0
2017-01-06T00:22:30.811Z,0
2017-01-06T00:23:30.754Z,0
2017-01-06T00:24:30.734Z,0
2017-01-06T00:25:30.981Z,0
2017-01-06T00:26:30.695Z,0
2017-01-06T00:27:30.666Z,0
2017-01-06T00:28:30.645Z,0
2017-01-06T00:29:31.025Z,0
2017-01-06T00:30:30.605Z,0
2017-01-06T00:31:30.580Z,0
2017-01-06T00:32:30.567Z,0
2017-01-06T00:33:30.536Z,0
2017-01-06T00:34:30.513Z,0
2017-01-06T00:35:30.490Z,0
2017-01-06T00:36:30.474Z,0
2017-01-06T00:37:30.450Z,0
2017-01-06T00:38:30.429Z,0
2017-01-06T00:39:30.421Z,0
2017-01-06T00:40:30.385Z,0
2017-01-06T00:41:30.361Z,0
2017-01-06T00:42:30.339Z,0
2017-01-06T00:43:30.313Z,0
2017-01-06T00:44:30.294Z,0
2017-01-06T00:45:30.270Z,0
2017-01-06T00:46:30.252Z,0
2017-01-06T00:47:30.229Z,0
2017-01-06T00:48:30.226Z,0
2017-01-06T00:49:30.190Z,0
2017-01-06T00:50:30.168Z,0
2017-01-06T00:51:30.138Z,0
2017-01-06T00:52:30.113Z,0
2017-01-06T00:53:30.095Z,0
2017-01-06T00:54:30.078Z,0
2017-01-06T00:55:30.053Z,0
2017-01-06T00:56:30.027Z,0
2017-01-06T00:57:30.009Z,0
2017-01-06T00:58:29.983Z,0
2017-01-06T00:59:29.963Z,0
2017-01-06T01:00:29.936Z,0
2017-01-06T01:01:29.917Z,0
2017-01-06T01:02:29.893Z,0
2017-01-06T01:03:29.881Z,0
2017-01-06T01:04:29.856Z,0
2017-01-06T01:05:29.826Z,0
2017-01-06T01:06:29.809Z,0
2017-01-06T01:07:29.792Z,0
2017-01-06T01:08:29.760Z,0
2017-01-06T01:09:29.740Z,0
2017-01-06T01:10:29.748Z,0
2017-01-06T01:11:29.694Z,0
2017-01-06T01:12:29.669Z,0
2017-01-06T01:13:29.650Z,0
2017-01-06T01:14:29.630Z,0
2017-01-06T01:15:29.599Z,0
2017-01-06T01:16:29.588Z,0
2017-01-06T01:17:29.564Z,0
2017-01-06T01:18:29.537Z,0
2017-01-06T01:19:29.518Z,0
2017-01-06T01:20:29.502Z,0
2017-01-06T01:21:29.473Z,0
2017-01-06T01:22:29.537Z,0
2017-01-06T01:23:29.429Z,0
2017-01-06T01:24:29.405Z,0
2017-01-06T01:25:29.412Z,0
2017-01-06T01:26:29.358Z,0
2017-01-06T01:27:29.335Z,0
2017-01-06T01:28:29.314Z,0
2017-01-06T01:29:29.319Z,0
2017-01-06T01:30:29.267Z,0
2017-01-06T01:31:29.247Z,0
2017-01-06T01:32:29.231Z,0
2017-01-06T01:33:29.204Z,0
2017-01-06T01:34:29.191Z,0
2017-01-06T01:35:29.159Z,0
2017-01-06T01:36:29.137Z,0
2017-01-06T01:37:29.114Z,0
2017-01-06T01:38:29.094Z,0
2017-01-06T01:39:29.069Z,0
2017-01-06T01:40:29.073Z,0
2017-01-06T01:41:29.033Z,0
2017-01-06T01:42:29.006Z,0
2017-01-06T01:43:28.985Z,0
2017-01-06T01:44:28.960Z,0
2017-01-06T01:45:28.944Z,0
2017-01-06T01:46:28.915Z,0
2017-01-06T01:47:28.891Z,0
2017-01-06T01:48:28.870Z,0
2017-01-06T01:49:28.850Z,0
2017-01-06T01:50:28.825Z,0
2017-01-06T01:51:28.824Z,0
2017-01-06T01:52:28.777Z,0
2017-01-06T01:53:28.760Z,0
2017-01-06T01:54:28.761Z,0
2017-01-06T01:55:28.720Z,0
2017-01-06T01:56:28.690Z,0
2017-01-06T01:57:28.669Z,0
2017-01-06T01:58:28.646Z,0
2017-01-06T01:59:28.628Z,0
2017-01-06T02:01:00.678Z,0
2017-01-06T02:01:28.580Z,0
2017-01-06T02:02:28.556Z,0
2017-01-06T02:03:28.534Z,0
2017-01-06T02:04:41.249Z,0
2017-01-06T02:05:28.495Z,0
2017-01-06T02:06:28.466Z,0
2017-01-06T02:07:28.444Z,0
2017-01-06T02:08:28.423Z,0
2017-01-06T02:09:28.400Z,0
2017-01-06T02:10:28.379Z,0
2017-01-06T02:11:28.357Z,0
2017-01-06T02:12:28.331Z,0
2017-01-06T02:13:28.308Z,0
2017-01-06T02:14:28.308Z,0
2017-01-06T02:15:28.268Z,0
2017-01-06T02:16:28.245Z,0
2017-01-06T02:17:28.218Z,0
2017-01-06T02:18:28.200Z,0
2017-01-06T02:19:28.207Z,0
2017-01-06T02:20:28.157Z,0
2017-01-06T02:21:28.167Z,0
2017-01-06T02:22:28.108Z,0
2017-01-06T02:23:28.089Z,0
2017-01-06T02:24:28.063Z,0
2017-01-06T02:25:28.049Z,0
2017-01-06T02:26:28.025Z,0
2017-01-06T02:27:27.996Z,0
2017-01-06T02:28:28.000Z,0
2017-01-06T02:29:27.956Z,0
2017-01-06T02:30:27.930Z,0
2017-01-06T02:31:27.910Z,0
2017-01-06T02:32:27.882Z,0
2017-01-06T02:33:27.862Z,0
2017-01-06T02:34:27.841Z,0
2017-01-06T02:35:27.813Z,0
2017-01-06T02:36:27.795Z,0
2017-01-06T02:37:27.775Z,0
2017-01-06T02:38:27.752Z,0
2017-01-06T02:39:27.727Z,0
2017-01-06T02:40:27.704Z,0
2017-01-06T02:41:27.686Z,0
2017-01-06T02:42:27.655Z,0
2017-01-06T02:43:27.644Z,0
2017-01-06T02:44:27.615Z,0
2017-01-06T02:45:27.594Z,0
2017-01-06T02:46:27.567Z,0
2017-01-06T02:47:27.946Z,0
2017-01-06T02:48:27.527Z,0
2017-01-06T02:49:27.503Z,0
2017-01-06T02:50:27.476Z,0
2017-01-06T02:51:27.462Z,0
2017-01-06T02:52:27.431Z,0
2017-01-06T02:53:27.408Z,0
2017-01-06T02:54:27.387Z,0
2017-01-06T02:55:27.374Z,0
2017-01-06T02:56:27.341Z,0
2017-01-06T02:57:27.326Z,0
2017-01-06T02:58:27.298Z,0
2017-01-06T02:59:27.277Z,0
2017-01-06T03:00:27.253Z,0
2017-01-06T03:01:27.235Z,0
2017-01-06T03:02:27.213Z,0
2017-01-06T03:03:27.192Z,0
2017-01-06T03:04:27.563Z,0
2017-01-06T03:05:27.175Z,0
2017-01-06T03:06:27.118Z,0
2017-01-06T03:07:27.099Z,0
2017-01-06T03:08:27.074Z,0
2017-01-06T03:09:27.053Z,0
2017-01-06T03:10:27.423Z,0
2017-01-06T03:11:27.005Z,0
2017-01-06T03:12:26.981Z,0
2017-01-06T03:13:26.958Z,0
2017-01-06T03:14:26.945Z,0
2017-01-06T03:15:26.916Z,0
2017-01-06T03:16:26.893Z,0
2017-01-06T03:17:26.874Z,0
2017-01-06T03:18:26.857Z,0
2017-01-06T03:19:26.829Z,0
2017-01-06T03:20:26.805Z,0
2017-01-06T03:21:26.784Z,0
2017-01-06T03:22:26.757Z,0
2017-01-06T03:23:26.736Z,0
2017-01-06T03:24:26.712Z,0
2017-01-06T03:25:26.697Z,0
2017-01-06T03:26:26.671Z,0
2017-01-06T03:27:26.699Z,0
2017-01-06T03:28:26.624Z,0
2017-01-06T03:29:26.603Z,0
2017-01-06T03:30:26.585Z,0
2017-01-06T03:31:26.558Z,0
2017-01-06T03:32:26.933Z,0
2017-01-06T03:33:26.513Z,0
2017-01-06T03:34:26.519Z,0
2017-01-06T03:35:26.469Z,0
2017-01-06T03:36:26.447Z,0
2017-01-06T03:37:26.426Z,0
2017-01-06T03:38:26.399Z,0
2017-01-06T03:39:26.380Z,0
2017-01-06T03:40:26.357Z,0
2017-01-06T03:41:26.333Z,0
2017-01-06T03:42:26.306Z,0
2017-01-06T03:43:26.319Z,0
2017-01-06T03:44:26.267Z,0
2017-01-06T03:45:26.242Z,0
2017-01-06T03:46:26.221Z,0
2017-01-06T03:47:26.201Z,0
2017-01-06T03:48:26.173Z,0
2017-01-06T03:49:26.195Z,0
2017-01-06T03:50:26.160Z,0
2017-01-06T03:51:26.469Z,0
2017-01-06T03:52:26.087Z,0
2017-01-06T03:53:26.064Z,0
2017-01-06T03:54:26.043Z,0
2017-01-06T03:55:26.049Z,0
2017-01-06T03:56:26.000Z,0
2017-01-06T03:57:25.974Z,0
2017-01-06T03:58:25.952Z,0
2017-01-06T03:59:25.932Z,0
2017-01-06T04:00:25.914Z,0
2017-01-06T04:01:25.925Z,0
2017-01-06T04:02:25.861Z,0
2017-01-06T04:03:25.844Z,0
2017-01-06T04:04:25.823Z,0
2017-01-06T04:05:25.797Z,0
2017-01-06T04:06:25.777Z,0
2017-01-06T04:07:25.781Z,0
2017-01-06T04:08:25.731Z,0
2017-01-06T04:09:25.711Z,0
2017-01-06T04:10:25.679Z,0
2017-01-06T04:11:25.663Z,0
2017-01-06T04:12:25.671Z,0
2017-01-06T04:13:25.619Z,0
2017-01-06T04:14:25.597Z,0
2017-01-06T04:15:25.572Z,0
2017-01-06T04:16:25.553Z,0
2017-01-06T04:17:25.552Z,0
2017-01-06T04:18:25.508Z,0
2017-01-06T04:19:25.485Z,0
2017-01-06T04:20:25.463Z,0
2017-01-06T04:21:25.440Z,0
2017-01-06T04:22:25.416Z,0
2017-01-06T04:23:25.392Z,0
2017-01-06T04:24:25.372Z,0
2017-01-06T04:25:25.351Z,0
2017-01-06T04:26:25.331Z,0
2017-01-06T04:27:25.308Z,0
2017-01-06T04:28:25.289Z,0
2017-01-06T04:29:25.267Z,0
2017-01-06T04:30:25.237Z,0
2017-01-06T04:31:25.220Z,0
2017-01-06T04:32:25.191Z,0
2017-01-06T04:33:25.171Z,0
2017-01-06T04:34:25.152Z,0
2017-01-06T04:35:25.127Z,0
2017-01-06T04:36:25.105Z,0
2017-01-06T04:37:25.086Z,0
2017-01-06T04:38:25.066Z,0
2017-01-06T04:39:25.040Z,0
2017-01-06T04:40:25.016Z,0
2017-01-06T04:41:24.996Z,0
2017-01-06T04:42:24.976Z,0
2017-01-06T04:43:24.947Z,0
2017-01-06T04:44:24.927Z,0
2017-01-06T04:45:24.900Z,0
2017-01-06T04:46:24.882Z,0
2017-01-06T04:47:24.860Z,0
2017-01-06T04:48:24.841Z,0
2017-01-06T04:49:24.815Z,0
2017-01-06T04:50:24.794Z,0
2017-01-06T04:51:24.770Z,0
2017-01-06T04:52:24.744Z,0
2017-01-06T04:53:24.726Z,0
2017-01-06T04:54:24.727Z,0
2017-01-06T04:55:24.678Z,0
2017-01-06T04:56:24.654Z,0
2017-01-06T04:57:24.634Z,0
2017-01-06T04:58:24.614Z,0
2017-01-06T04:59:24.589Z,0
2017-01-06T05:00:24.571Z,0
2017-01-06T05:01:24.946Z,0
2017-01-06T05:02:24.519Z,0
2017-01-06T05:03:24.525Z,0
2017-01-06T05:04:24.477Z,0
2017-01-06T05:05:24.456Z,0
2017-01-06T05:06:24.430Z,0
2017-01-06T05:07:24.410Z,0
2017-01-06T05:08:24.382Z,0
2017-01-06T05:09:24.365Z,0
2017-01-06T05:10:24.741Z,0
2017-01-06T05:11:24.320Z,0
2017-01-06T05:12:24.295Z,0
2017-01-06T05:13:24.272Z,0
2017-01-06T05:14:24.249Z,0
2017-01-06T05:15:24.227Z,0
2017-01-06T05:16:24.208Z,0
2017-01-06T05:17:24.188Z,0
2017-01-06T05:18:24.164Z,0
2017-01-06T05:19:24.140Z,0
2017-01-06T05:20:24.116Z,0
2017-01-06T05:21:24.105Z,0
2017-01-06T05:22:24.095Z,0
2017-01-06T05:23:24.054Z,0
2017-01-06T05:24:24.029Z,0
2017-01-06T05:25:24.015Z,0
2017-01-06T05:26:24.385Z,0
2017-01-06T05:27:23.957Z,0
2017-01-06T05:28:23.935Z,0
2017-01-06T05:29:23.914Z,0
2017-01-06T05:30:23.892Z,0
2017-01-06T05:31:23.873Z,0
2017-01-06T05:32:24.242Z,0
2017-01-06T05:33:23.830Z,0
2017-01-06T05:34:23.805Z,0
2017-01-06T05:35:23.779Z,0
2017-01-06T05:36:23.759Z,0
2017-01-06T05:37:23.736Z,0
2017-01-06T05:38:23.720Z,0
2017-01-06T05:39:23.688Z,0
2017-01-06T05:40:23.670Z,0
2017-01-06T05:41:23.653Z,0
2017-01-06T05:42:23.626Z,0
2017-01-06T05:43:23.602Z,0
2017-01-06T05:44:23.580Z,0
2017-01-06T05:45:23.555Z,0
2017-01-06T05:46:23.539Z,0
2017-01-06T05:47:23.570Z,0
2017-01-06T05:48:23.494Z,0
2017-01-06T05:49:23.470Z,0
2017-01-06T05:50:23.447Z,0
2017-01-06T05:51:23.424Z,0
2017-01-06T05:52:23.405Z,0
2017-01-06T05:53:23.384Z,0
2017-01-06T05:54:23.754Z,0
2017-01-06T05:55:23.334Z,0
2017-01-06T05:56:23.320Z,0
2017-01-06T05:57:23.285Z,0
2017-01-06T05:58:23.277Z,0
2017-01-06T05:59:23.243Z,0
2017-01-06T06:00:23.218Z,0
2017-01-06T06:01:23.213Z,0
2017-01-06T06:02:23.177Z,0
2017-01-06T06:03:23.157Z,0
2017-01-06T06:04:23.135Z,0
2017-01-06T06:05:23.112Z,0
2017-01-06T06:06:23.092Z,0
2017-01-06T06:07:23.098Z,0
2017-01-06T06:08:23.042Z,0
2017-01-06T06:09:23.022Z,0
2017-01-06T06:10:22.999Z,0
2017-01-06T06:11:22.975Z,0
2017-01-06T06:12:22.955Z,0
2017-01-06T06:13:22.929Z,0
2017-01-06T06:14:22.909Z,0
2017-01-06T06:15:22.888Z,0
2017-01-06T06:16:22.863Z,0
2017-01-06T06:17:22.844Z,0
2017-01-06T06:18:22.847Z,0
2017-01-06T06:19:23.196Z,0
2017-01-06T06:20:22.798Z,0
2017-01-06T06:21:22.753Z,0
2017-01-06T06:22:22.730Z,0
2017-01-06T06:23:22.733Z,0
2017-01-06T06:24:22.693Z,0
2017-01-06T06:25:22.657Z,0
2017-01-06T06:26:22.640Z,0
2017-01-06T06:27:22.615Z,0
2017-01-06T06:28:22.593Z,0
2017-01-06T06:29:22.567Z,0
2017-01-06T06:30:22.595Z,0
2017-01-06T06:31:22.523Z,0
2017-01-06T06:32:22.500Z,0
2017-01-06T06:33:22.483Z,0
2017-01-06T06:34:22.461Z,0
2017-01-06T06:35:22.435Z,0
2017-01-06T06:36:22.421Z,0
2017-01-06T06:37:22.398Z,0
2017-01-06T06:38:22.385Z,0
2017-01-06T06:39:22.344Z,0
2017-01-06T06:40:22.320Z,0
2017-01-06T06:41:22.297Z,0
2017-01-06T06:42:22.292Z,0
2017-01-06T06:43:22.254Z,0
2017-01-06T06:44:22.239Z,0
2017-01-06T06:45:22.208Z,0
2017-01-06T06:46:22.189Z,0
2017-01-06T06:47:22.165Z,0
2017-01-06T06:48:22.139Z,0
2017-01-06T06:49:22.127Z,0
2017-01-06T06:50:22.491Z,0
2017-01-06T06:51:22.074Z,0
2017-01-06T06:52:22.051Z,0
2017-01-06T06:53:22.030Z,0
2017-01-06T06:54:22.006Z,0
2017-01-06T06:55:21.985Z,0
2017-01-06T06:56:21.961Z,0
2017-01-06T06:57:21.939Z,0
2017-01-06T06:58:21.921Z,0
2017-01-06T06:59:21.893Z,0
2017-01-06T07:00:21.897Z,0
2017-01-06T07:01:21.849Z,0
2017-01-06T07:02:21.823Z,0
2017-01-06T07:03:21.809Z,0
2017-01-06T07:04:21.780Z,0
2017-01-06T07:05:21.756Z,0
2017-01-06T07:06:21.735Z,0
2017-01-06T07:07:21.714Z,0
2017-01-06T07:08:21.691Z,0
2017-01-06T07:09:21.676Z,0
2017-01-06T07:10:21.647Z,0
2017-01-06T07:11:21.625Z,5
2017-01-06T07:12:21.603Z,5
2017-01-06T07:13:21.597Z,5
2017-01-06T07:14:21.556Z,5
2017-01-06T07:15:21.536Z,5
2017-01-06T07:16:21.507Z,5
2017-01-06T07:17:21.495Z,5
2017-01-06T07:18:21.462Z,5
2017-01-06T07:19:21.443Z,5
2017-01-06T07:20:21.424Z,5
2017-01-06T07:21:21.399Z,10
2017-01-06T07:22:21.375Z,10
2017-01-06T07:23:21.356Z,10
2017-01-06T07:24:21.331Z,10
2017-01-06T07:25:21.705Z,10
2017-01-06T07:26:21.290Z,10
2017-01-06T07:27:21.263Z,10
2017-01-06T07:28:21.244Z,10
2017-01-06T07:29:21.220Z,15
2017-01-06T07:30:21.235Z,15
2017-01-06T07:31:21.174Z,15
2017-01-06T07:32:21.149Z,15
2017-01-06T07:33:21.128Z,15
2017-01-06T07:34:21.109Z,15
2017-01-06T07:35:21.086Z,15
2017-01-06T07:36:21.060Z,15
2017-01-06T07:37:21.040Z,15
2017-01-06T07:38:21.017Z,15
2017-01-06T07:39:20.996Z,15
2017-01-06T07:40:20.972Z,15
2017-01-06T07:41:20.955Z,15
2017-01-06T07:42:20.927Z,15
2017-01-06T07:43:20.906Z,15
2017-01-06T07:44:20.898Z,15
2017-01-06T07:45:20.858Z,15
2017-01-06T07:46:20.839Z,20
2017-01-06T07:47:20.815Z,20
2017-01-06T07:48:20.795Z,20
2017-01-06T07:49:20.777Z,25
2017-01-06T07:50:20.766Z,25
2017-01-06T07:51:20.726Z,25
2017-01-06T07:52:20.707Z,25
2017-01-06T07:53:20.686Z,25
2017-01-06T07:54:20.660Z,25
2017-01-06T07:55:20.637Z,30
2017-01-06T07:56:20.615Z,30
2017-01-06T07:57:20.605Z,30
2017-01-06T07:58:20.968Z,30
2017-01-06T07:59:20.940Z,25
2017-01-06T08:00:20.526Z,25
2017-01-06T08:01:21.313Z,30
2017-01-06T08:02:20.484Z,30
2017-01-06T08:03:20.458Z,30
2017-01-06T08:04:20.439Z,30
2017-01-06T08:05:20.415Z,30
2017-01-06T08:06:20.394Z,35
2017-01-06T08:07:20.369Z,35
2017-01-06T08:08:20.378Z,35
2017-01-06T08:09:20.326Z,35
2017-01-06T08:10:20.300Z,40
2017-01-06T08:11:20.286Z,40
2017-01-06T08:12:20.286Z,40
2017-01-06T08:13:20.234Z,40
2017-01-06T08:14:20.211Z,45
2017-01-06T08:15:20.191Z,50
2017-01-06T08:16:20.170Z,50
2017-01-06T08:17:20.148Z,50
2017-01-06T08:18:20.127Z,50
2017-01-06T08:19:20.104Z,50
2017-01-06T08:20:20.084Z,55
2017-01-06T08:21:20.060Z,60
2017-01-06T08:22:20.036Z,65
2017-01-06T08:23:20.015Z,65
2017-01-06T08:24:19.995Z,65
2017-01-06T08:25:19.973Z,65
2017-01-06T08:26:19.945Z,65
2017-01-06T08:27:19.926Z,65
2017-01-06T08:28:19.906Z,65
2017-01-06T08:29:19.889Z,65
2017-01-06T08:30:19.864Z,65
2017-01-06T08:31:19.841Z,70
2017-01-06T08:32:19.821Z,70
2017-01-06T08:33:19.792Z,65
2017-01-06T08:34:19.777Z,65
2017-01-06T08:35:19.753Z,65
2017-01-06T08:36:19.731Z,65
2017-01-06T08:37:19.713Z,65
2017-01-06T08:38:19.686Z,60
2017-01-06T08:39:19.659Z,60
2017-01-06T08:40:19.648Z,60
2017-01-06T08:41:19.620Z,65
2017-01-06T08:42:19.597Z,65
2017-01-06T08:43:19.579Z,70
2017-01-06T08:44:19.548Z,70
2017-01-06T08:45:19.570Z,65
2017-01-06T08:46:19.512Z,65
2017-01-06T08:47:19.490Z,65
2017-01-06T08:48:19.474Z,75
2017-01-06T08:49:19.452Z,80
2017-01-06T08:50:19.823Z,80
2017-01-06T08:51:19.404Z,85
2017-01-06T08:52:19.413Z,95
2017-01-06T08:53:19.360Z,105
2017-01-06T08:54:19.342Z,105
2017-01-06T08:55:19.318Z,95
2017-01-06T08:56:19.291Z,90
2017-01-06T08:57:19.270Z,85
2017-01-06T08:58:19.253Z,80
2017-01-06T08:59:19.232Z,85
2017-01-06T09:00:19.207Z,90
2017-01-06T09:01:19.195Z,100
2017-01-06T09:02:19.166Z,95
2017-01-06T09:03:19.143Z,95
2017-01-06T09:04:19.125Z,90
2017-01-06T09:05:19.101Z,80
2017-01-06T09:06:19.078Z,80
2017-01-06T09:07:19.055Z,85
2017-01-06T09:08:19.036Z,90
2017-01-06T09:09:19.011Z,95
2017-01-06T09:10:18.993Z,100
2017-01-06T09:11:18.969Z,95
2017-01-06T09:12:18.947Z,95
2017-01-06T09:13:18.929Z,90
2017-01-06T09:14:18.903Z,90
2017-01-06T09:15:18.905Z,90
2017-01-06T09:16:18.867Z,95
2017-01-06T09:17:18.837Z,95
2017-01-06T09:18:18.823Z,100
2017-01-06T09:19:18.799Z,110
2017-01-06T09:20:18.775Z,115
2017-01-06T09:21:18.759Z,120
2017-01-06T09:22:18.733Z,120
2017-01-06T09:23:18.709Z,120
2017-01-06T09:24:18.691Z,120
2017-01-06T09:25:18.671Z,120
2017-01-06T09:26:18.651Z,120
2017-01-06T09:27:18.628Z,120
2017-01-06T09:28:18.604Z,120
2017-01-06T09:29:18.584Z,115
2017-01-06T09:30:18.562Z,115
2017-01-06T09:31:18.542Z,120
2017-01-06T09:32:18.523Z,120
2017-01-06T09:33:18.503Z,120
2017-01-06T09:34:18.476Z,115
2017-01-06T09:35:18.456Z,110
2017-01-06T09:36:18.436Z,110
2017-01-06T09:37:18.414Z,115
2017-01-06T09:38:18.393Z,115
2017-01-06T09:39:18.370Z,120
2017-01-06T09:40:18.352Z,115
2017-01-06T09:41:18.336Z,110
2017-01-06T09:42:18.309Z,105
2017-01-06T09:43:18.289Z,100
2017-01-06T09:44:18.266Z,100
2017-01-06T09:45:18.248Z,100
2017-01-06T09:46:18.221Z,100
2017-01-06T09:47:18.205Z,100
2017-01-06T09:48:18.185Z,100
2017-01-06T09:49:18.160Z,100
2017-01-06T09:50:18.146Z,100
2017-01-06T09:51:18.118Z,95
2017-01-06T09:52:18.103Z,95
2017-01-06T09:53:18.078Z,95
2017-01-06T09:54:18.056Z,95
2017-01-06T09:55:18.037Z,95
2017-01-06T09:56:18.013Z,95
2017-01-06T09:57:17.992Z,95
2017-01-06T09:58:17.973Z,95
2017-01-06T09:59:17.948Z,95
2017-01-06T10:00:17.930Z,95
2017-01-06T10:01:18.067Z,95
2017-01-06T10:02:17.886Z,95
2017-01-06T10:03:17.871Z,95
2017-01-06T10:04:17.840Z,95
2017-01-06T10:05:17.820Z,100
2017-01-06T10:06:17.796Z,100
2017-01-06T10:07:17.780Z,105
2017-01-06T10:08:17.752Z,105
2017-01-06T10:09:17.734Z,105
2017-01-06T10:10:17.711Z,100
2017-01-06T10:11:17.694Z,95
2017-01-06T10:12:17.695Z,90
2017-01-06T10:13:17.651Z,90
2017-01-06T10:14:17.629Z,90
2017-01-06T10:15:17.600Z,85
2017-01-06T10:16:17.584Z,85
2017-01-06T10:17:17.563Z,85
2017-01-06T10:18:17.543Z,90
2017-01-06T10:19:17.524Z,90
2017-01-06T10:20:17.498Z,90
2017-01-06T10:21:17.476Z,95
2017-01-06T10:22:17.453Z,100
2017-01-06T10:23:17.429Z,105
2017-01-06T10:24:17.409Z,115
2017-01-06T10:25:17.389Z,120
2017-01-06T10:26:17.372Z,125
2017-01-06T10:27:17.351Z,120
2017-01-06T10:28:17.724Z,120
2017-01-06T10:29:17.310Z,125
2017-01-06T10:30:17.279Z,125
2017-01-06T10:31:17.292Z,125
2017-01-06T10:32:17.238Z,130
2017-01-06T10:33:17.218Z,130
2017-01-06T10:34:17.194Z,135
2017-01-06T10:35:17.169Z,135
2017-01-06T10:36:17.147Z,130
2017-01-06T10:37:17.134Z,125
2017-01-06T10:38:17.110Z,125
2017-01-06T10:39:17.086Z,115
2017-01-06T10:40:17.071Z,110
2017-01-06T10:41:17.045Z,105
2017-01-06T10:42:17.025Z,100
2017-01-06T10:43:17.001Z,100
2017-01-06T10:44:16.984Z,95
2017-01-06T10:45:16.961Z,95
2017-01-06T10:46:16.940Z,95
2017-01-06T10:47:16.916Z,90
2017-01-06T10:48:16.901Z,95
2017-01-06T10:49:16.879Z,95
2017-01-06T10:50:16.855Z,90
2017-01-06T10:51:16.838Z,95
2017-01-06T10:52:16.806Z,90
2017-01-06T10:53:16.791Z,90
2017-01-06T10:54:16.767Z,90
2017-01-06T10:55:16.760Z,90
2017-01-06T10:56:16.727Z,90
2017-01-06T10:57:16.731Z,90
2017-01-06T10:58:16.689Z,90
2017-01-06T10:59:16.660Z,85
2017-01-06T11:00:16.641Z,85
2017-01-06T11:01:16.621Z,85
2017-01-06T11:02:16.598Z,85
2017-01-06T11:03:16.619Z,85
2017-01-06T11:04:16.555Z,85
2017-01-06T11:05:16.542Z,85
2017-01-06T11:06:16.515Z,85
2017-01-06T11:07:16.499Z,85
2017-01-06T11:08:16.873Z,85
2017-01-06T11:09:16.451Z,85
2017-01-06T11:10:16.427Z,85
2017-01-06T11:11:16.410Z,85
2017-01-06T11:12:16.388Z,85
2017-01-06T11:13:16.361Z,85
2017-01-06T11:14:16.345Z,85
2017-01-06T11:15:16.315Z,85
2017-01-06T11:16:16.301Z,85
2017-01-06T11:17:16.675Z,85
2017-01-06T11:18:16.256Z,85
2017-01-06T11:19:16.235Z,85
2017-01-06T11:20:16.212Z,85
2017-01-06T11:21:16.193Z,85
2017-01-06T11:22:16.175Z,85
2017-01-06T11:23:16.150Z,85
2017-01-06T11:24:16.130Z,85
2017-01-06T11:25:16.103Z,85
2017-01-06T11:26:16.083Z,85
2017-01-06T11:27:16.090Z,85
2017-01-06T11:28:16.045Z,85
2017-01-06T11:29:16.021Z,85
2017-01-06T11:30:15.995Z,85
2017-01-06T11:31:15.980Z,85
2017-01-06T11:32:15.952Z,85
2017-01-06T11:33:15.932Z,85
2017-01-06T11:34:15.912Z,85
2017-01-06T11:35:15.887Z,85
2017-01-06T11:36:15.868Z,85
2017-01-06T11:37:15.847Z,85
2017-01-06T11:38:15.822Z,85
2017-01-06T11:39:15.804Z,85
2017-01-06T11:40:15.781Z,85
2017-01-06T11:41:15.760Z,85
2017-01-06T11:42:15.741Z,85
2017-01-06T11:43:15.720Z,85
2017-01-06T11:44:15.700Z,85
2017-01-06T11:45:15.673Z,85
2017-01-06T11:46:15.652Z,85
2017-01-06T11:47:15.680Z,85
2017-01-06T11:48:15.616Z,85
2017-01-06T11:49:15.590Z,85
2017-01-06T11:50:15.564Z,85
2017-01-06T11:51:15.544Z,85
2017-01-06T11:52:15.547Z,85
2017-01-06T11:53:15.498Z,85
2017-01-06T11:54:15.477Z,80
2017-01-06T11:55:15.479Z,80
2017-01-06T11:56:15.434Z,80
2017-01-06T11:57:15.411Z,80
2017-01-06T11:58:15.390Z,80
2017-01-06T11:59:15.372Z,80
2017-01-06T12:00:15.347Z,80
2017-01-06T12:01:15.325Z,80
2017-01-06T12:02:15.306Z,80
2017-01-06T12:03:15.279Z,80
2017-01-06T12:04:15.260Z,80
2017-01-06T12:05:15.232Z,80
2017-01-06T12:06:15.217Z,80
2017-01-06T12:07:15.191Z,80
2017-01-06T12:08:15.169Z,80
2017-01-06T12:09:15.150Z,80
2017-01-06T12:10:15.126Z,80
2017-01-06T12:11:15.105Z,80
2017-01-06T12:12:15.080Z,80
2017-01-06T12:13:15.060Z,80
2017-01-06T12:14:15.038Z,80
2017-01-06T12:15:15.022Z,80
2017-01-06T12:16:14.998Z,75
2017-01-06T12:17:14.967Z,80
2017-01-06T12:18:14.949Z,80
2017-01-06T12:19:14.926Z,80
2017-01-06T12:20:14.912Z,75
2017-01-06T12:21:14.882Z,80
2017-01-06T12:22:15.263Z,75
2017-01-06T12:23:14.851Z,75
2017-01-06T12:24:14.822Z,75
2017-01-06T12:25:14.797Z,75
2017-01-06T12:26:14.787Z,75
2017-01-06T12:27:14.753Z,75
2017-01-06T12:28:14.754Z,75
2017-01-06T12:29:14.706Z,75
2017-01-06T12:30:14.680Z,75
2017-01-06T12:31:14.665Z,75
2017-01-06T12:32:14.646Z,75
2017-01-06T12:33:14.619Z,75
2017-01-06T12:34:14.598Z,75
2017-01-06T12:35:14.578Z,75
2017-01-06T12:36:14.554Z,75
2017-01-06T12:37:14.533Z,75
2017-01-06T12:38:14.569Z,75
2017-01-06T12:39:14.486Z,75
2017-01-06T12:40:14.468Z,75
2017-01-06T12:41:14.446Z,75
2017-01-06T12:42:14.427Z,75
2017-01-06T12:43:14.410Z,75
2017-01-06T12:44:14.384Z,75
2017-01-06T12:45:14.354Z,70
2017-01-06T12:46:14.337Z,70
2017-01-06T12:47:14.343Z,70
2017-01-06T12:48:14.292Z,70
2017-01-06T12:49:14.262Z,70
2017-01-06T12:50:14.248Z,70
2017-01-06T12:51:14.222Z,70
2017-01-06T12:52:14.197Z,70
2017-01-06T12:53:14.175Z,70
2017-01-06T12:54:14.156Z,70
2017-01-06T12:55:14.130Z,70
2017-01-06T12:56:14.106Z,70
2017-01-06T12:57:14.091Z,70
2017-01-06T12:58:14.067Z,70
2017-01-06T12:59:14.045Z,70
2017-01-06T13:00:14.020Z,70
2017-01-06T13:01:14.003Z,70
2017-01-06T13:02:13.980Z,65
2017-01-06T13:03:13.960Z,65
2017-01-06T13:04:13.931Z,65
2017-01-06T13:05:13.911Z,65
2017-01-06T13:06:13.920Z,65
2017-01-06T13:07:13.881Z,65
2017-01-06T13:08:13.843Z,65
2017-01-06T13:09:13.842Z,65
2017-01-06T13:10:13.818Z,65
2017-01-06T13:11:13.805Z,65
2017-01-06T13:12:13.761Z,55
2017-01-06T13:13:14.111Z,55
2017-01-06T13:14:13.818Z,55
2017-01-06T13:15:13.708Z,55
2017-01-06T13:16:13.667Z,55
2017-01-06T13:17:13.647Z,55
2017-01-06T13:18:13.658Z,55
2017-01-06T13:19:13.604Z,55
2017-01-06T13:20:13.583Z,55
2017-01-06T13:21:13.562Z,55
2017-01-06T13:22:13.537Z,55
2017-01-06T13:23:13.514Z,50
2017-01-06T13:24:13.509Z,50
2017-01-06T13:25:13.475Z,50
2017-01-06T13:26:13.448Z,50
2017-01-06T13:27:13.428Z,50
2017-01-06T13:28:13.406Z,50
2017-01-06T13:29:13.390Z,50
2017-01-06T13:30:13.358Z,50
2017-01-06T13:31:13.340Z,50
2017-01-06T13:32:13.326Z,50
2017-01-06T13:33:13.297Z,50
2017-01-06T13:34:13.274Z,50
2017-01-06T13:35:13.269Z,50
2017-01-06T13:36:13.224Z,50
2017-01-06T13:37:13.204Z,50
2017-01-06T13:38:13.183Z,50
2017-01-06T13:39:13.160Z,50
2017-01-06T13:40:13.136Z,50
2017-01-06T13:41:13.112Z,50
2017-01-06T13:42:13.090Z,50
2017-01-06T13:43:13.066Z,50
2017-01-06T13:44:13.048Z,55
2017-01-06T13:45:13.027Z,60
2017-01-06T13:46:13.005Z,70
2017-01-06T13:47:12.981Z,70
2017-01-06T13:48:12.958Z,70
2017-01-06T13:49:12.931Z,65
2017-01-06T13:50:12.916Z,60
2017-01-06T13:51:12.892Z,55
2017-01-06T13:52:12.864Z,55
2017-01-06T13:53:12.851Z,55
2017-01-06T13:54:12.825Z,55
2017-01-06T13:55:12.808Z,55
2017-01-06T13:56:12.781Z,55
2017-01-06T13:57:12.752Z,55
2017-01-06T13:58:12.730Z,55
2017-01-06T13:59:12.733Z,55
2017-01-06T14:00:12.688Z,50
2017-01-06T14:01:12.664Z,50
2017-01-06T14:02:12.645Z,50
2017-01-06T14:03:12.650Z,45
2017-01-06T14:04:12.599Z,45
2017-01-06T14:05:12.574Z,45
2017-01-06T14:06:12.554Z,45
2017-01-06T14:07:12.531Z,45
2017-01-06T14:08:12.502Z,45
2017-01-06T14:09:12.485Z,45
2017-01-06T14:10:12.461Z,50
2017-01-06T14:11:12.439Z,50
2017-01-06T14:12:12.418Z,50
2017-01-06T14:13:12.393Z,45
2017-01-06T14:14:12.370Z,45
2017-01-06T14:15:12.347Z,50
2017-01-06T14:16:12.327Z,50
2017-01-06T14:17:12.305Z,50
2017-01-06T14:18:12.287Z,50
2017-01-06T14:19:12.257Z,50
2017-01-06T14:20:12.236Z,50
2017-01-06T14:21:12.219Z,50
2017-01-06T14:22:12.985Z,50
2017-01-06T14:23:12.174Z,50
2017-01-06T14:24:12.145Z,50
2017-01-06T14:25:12.125Z,50
2017-01-06T14:26:12.100Z,50
2017-01-06T14:27:12.077Z,50
2017-01-06T14:28:12.063Z,50
2017-01-06T14:29:12.035Z,50